sensor_id;sensor_type;location;lat;lon;timestamp;temperature;humidity
5556;DHT22;2801;50.972;7.856;2022-12-20T00:01:33;4.60;99.90
5556;DHT22;2801;50.972;7.856;2022-12-20T00:04:02;4.60;99.90
5556;DHT22;2801;50.972;7.856;2022-12-20T00:06:33;4.60;99.90
5556;DHT22;2801;50.972;7.856;2022-12-20T00:09:04;4.60;99.90
5556;DHT22;2801;50.972;7.856;2022-12-20T00:11:33;4.80;99.90
5556;DHT22;2801;50.972;7.856;2022-12-20T00:14:00;4.70;99.90
5556;DHT22;2801;50.972;7.856;2022-12-20T00:16:28;4.80;99.90
5556;DHT22;2801;50.972;7.856;2022-12-20T00:19:00;4.90;99.90
5556;DHT22;2801;50.972;7.856;2022-12-20T00:21:30;4.90;99.90
5556;DHT22;2801;50.972;7.856;2022-12-20T00:23:59;5.00;99.90
5556;DHT22;2801;50.972;7.856;2022-12-20T00:26:28;5.10;99.90
5556;DHT22;2801;50.972;7.856;2022-12-20T00:28:57;5.00;99.90
5556;DHT22;2801;50.972;7.856;2022-12-20T00:31:27;5.00;99.90
5556;DHT22;2801;50.972;7.856;2022-12-20T00:33:57;5.00;99.90
5556;DHT22;2801;50.972;7.856;2022-12-20T00:36:27;4.90;99.90
5556;DHT22;2801;50.972;7.856;2022-12-20T00:38:57;4.90;99.90
5556;DHT22;2801;50.972;7.856;2022-12-20T00:41:28;5.00;99.90
5556;DHT22;2801;50.972;7.856;2022-12-20T00:43:56;5.10;99.90
5556;DHT22;2801;50.972;7.856;2022-12-20T00:46:24;5.00;99.90
5556;DHT22;2801;50.972;7.856;2022-12-20T00:48:53;5.00;99.90
5556;DHT22;2801;50.972;7.856;2022-12-20T00:51:23;5.00;99.90
5556;DHT22;2801;50.972;7.856;2022-12-20T00:53:53;5.00;99.90
5556;DHT22;2801;50.972;7.856;2022-12-20T00:56:21;4.90;99.90
5556;DHT22;2801;50.972;7.856;2022-12-20T00:58:48;4.80;99.90
5556;DHT22;2801;50.972;7.856;2022-12-20T01:01:25;4.90;99.90
5556;DHT22;2801;50.972;7.856;2022-12-20T01:03:56;4.90;99.90
5556;DHT22;2801;50.972;7.856;2022-12-20T01:06:24;4.90;99.90
5556;DHT22;2801;50.972;7.856;2022-12-20T01:08:53;4.90;99.90
5556;DHT22;2801;50.972;7.856;2022-12-20T01:11:24;5.00;99.90
5556;DHT22;2801;50.972;7.856;2022-12-20T01:13:56;5.00;99.90
5556;DHT22;2801;50.972;7.856;2022-12-20T01:16:27;5.00;99.90
5556;DHT22;2801;50.972;7.856;2022-12-20T01:18:56;5.10;99.90
5556;DHT22;2801;50.972;7.856;2022-12-20T01:21:25;5.20;99.90
5556;DHT22;2801;50.972;7.856;2022-12-20T01:23:53;5.30;99.90
5556;DHT22;2801;50.972;7.856;2022-12-20T01:26:23;5.20;99.90
5556;DHT22;2801;50.972;7.856;2022-12-20T01:28:54;5.20;99.90
5556;DHT22;2801;50.972;7.856;2022-12-20T01:31:23;5.20;99.90
5556;DHT22;2801;50.972;7.856;2022-12-20T01:33:52;5.30;99.90
5556;DHT22;2801;50.972;7.856;2022-12-20T01:36:22;5.30;99.90
5556;DHT22;2801;50.972;7.856;2022-12-20T01:38:56;5.30;99.90
5556;DHT22;2801;50.972;7.856;2022-12-20T01:41:25;5.30;99.90
5556;DHT22;2801;50.972;7.856;2022-12-20T01:44:02;5.30;99.90
5556;DHT22;2801;50.972;7.856;2022-12-20T01:46:33;5.30;99.90
5556;DHT22;2801;50.972;7.856;2022-12-20T01:52:11;5.40;99.90
5556;DHT22;2801;50.972;7.856;2022-12-20T01:54:46;5.30;99.90
5556;DHT22;2801;50.972;7.856;2022-12-20T01:57:24;5.40;99.90
5556;DHT22;2801;50.972;7.856;2022-12-20T01:59:57;5.30;99.90
5556;DHT22;2801;50.972;7.856;2022-12-20T02:02:25;5.30;99.90
5556;DHT22;2801;50.972;7.856;2022-12-20T02:04:53;5.30;99.90
5556;DHT22;2801;50.972;7.856;2022-12-20T02:07:23;5.30;99.90
5556;DHT22;2801;50.972;7.856;2022-12-20T02:09:54;5.30;99.90
5556;DHT22;2801;50.972;7.856;2022-12-20T02:12:26;5.30;99.90
5556;DHT22;2801;50.972;7.856;2022-12-20T02:15:43;5.30;99.90
5556;DHT22;2801;50.972;7.856;2022-12-20T02:19:31;5.30;99.90
5556;DHT22;2801;50.972;7.856;2022-12-20T02:21:59;5.20;99.90
5556;DHT22;2801;50.972;7.856;2022-12-20T02:24:56;5.20;99.90
5556;DHT22;2801;50.972;7.856;2022-12-20T02:28:09;5.20;99.90
5556;DHT22;2801;50.972;7.856;2022-12-20T02:30:55;5.10;99.90
5556;DHT22;2801;50.972;7.856;2022-12-20T02:33:26;5.00;99.90
5556;DHT22;2801;50.972;7.856;2022-12-20T02:35:54;5.00;99.90
5556;DHT22;2801;50.972;7.856;2022-12-20T02:38:35;5.00;99.90
5556;DHT22;2801;50.972;7.856;2022-12-20T02:41:19;5.00;99.90
5556;DHT22;2801;50.972;7.856;2022-12-20T02:44:13;5.00;99.90
5556;DHT22;2801;50.972;7.856;2022-12-20T02:47:00;5.00;99.90
5556;DHT22;2801;50.972;7.856;2022-12-20T02:49:33;5.00;99.90
5556;DHT22;2801;50.972;7.856;2022-12-20T02:52:04;5.00;99.90
5556;DHT22;2801;50.972;7.856;2022-12-20T02:54:35;5.00;99.90
5556;DHT22;2801;50.972;7.856;2022-12-20T02:57:16;5.00;99.90
5556;DHT22;2801;50.972;7.856;2022-12-20T03:02:16;5.00;99.90
5556;DHT22;2801;50.972;7.856;2022-12-20T03:04:45;5.00;99.90
5556;DHT22;2801;50.972;7.856;2022-12-20T03:07:14;5.00;99.90
5556;DHT22;2801;50.972;7.856;2022-12-20T03:09:46;5.00;99.90
5556;DHT22;2801;50.972;7.856;2022-12-20T03:12:13;5.00;99.90
5556;DHT22;2801;50.972;7.856;2022-12-20T03:14:42;4.90;99.90
5556;DHT22;2801;50.972;7.856;2022-12-20T03:17:09;5.00;99.90
5556;DHT22;2801;50.972;7.856;2022-12-20T03:19:36;5.00;99.90
5556;DHT22;2801;50.972;7.856;2022-12-20T03:22:03;4.90;99.90
5556;DHT22;2801;50.972;7.856;2022-12-20T03:24:30;5.00;99.90
5556;DHT22;2801;50.972;7.856;2022-12-20T03:26:58;5.00;99.90
5556;DHT22;2801;50.972;7.856;2022-12-20T03:29:25;4.90;99.90
5556;DHT22;2801;50.972;7.856;2022-12-20T03:31:52;4.90;99.90
5556;DHT22;2801;50.972;7.856;2022-12-20T03:34:20;5.00;99.90
5556;DHT22;2801;50.972;7.856;2022-12-20T03:36:48;5.00;99.90
5556;DHT22;2801;50.972;7.856;2022-12-20T03:39:17;4.90;99.90
5556;DHT22;2801;50.972;7.856;2022-12-20T03:41:47;5.10;99.90
5556;DHT22;2801;50.972;7.856;2022-12-20T03:44:14;4.90;99.90
5556;DHT22;2801;50.972;7.856;2022-12-20T03:46:41;4.90;99.90
5556;DHT22;2801;50.972;7.856;2022-12-20T03:49:08;4.90;99.90
5556;DHT22;2801;50.972;7.856;2022-12-20T03:51:35;4.90;99.90
5556;DHT22;2801;50.972;7.856;2022-12-20T03:54:02;4.90;99.90
5556;DHT22;2801;50.972;7.856;2022-12-20T03:56:29;4.90;99.90
5556;DHT22;2801;50.972;7.856;2022-12-20T03:58:56;4.90;99.90
5556;DHT22;2801;50.972;7.856;2022-12-20T04:01:25;4.90;99.90
5556;DHT22;2801;50.972;7.856;2022-12-20T04:03:54;5.00;99.90
5556;DHT22;2801;50.972;7.856;2022-12-20T04:06:22;5.00;99.90
5556;DHT22;2801;50.972;7.856;2022-12-20T04:08:49;4.90;99.90
5556;DHT22;2801;50.972;7.856;2022-12-20T04:11:16;4.90;99.90
5556;DHT22;2801;50.972;7.856;2022-12-20T04:13:53;5.00;99.90
5556;DHT22;2801;50.972;7.856;2022-12-20T04:16:25;5.00;99.90
5556;DHT22;2801;50.972;7.856;2022-12-20T04:18:55;5.00;99.90
5556;DHT22;2801;50.972;7.856;2022-12-20T04:21:28;5.00;99.90
5556;DHT22;2801;50.972;7.856;2022-12-20T04:23:58;5.00;99.90
5556;DHT22;2801;50.972;7.856;2022-12-20T04:26:26;5.10;99.90
5556;DHT22;2801;50.972;7.856;2022-12-20T04:28:53;5.10;99.90
5556;DHT22;2801;50.972;7.856;2022-12-20T04:31:20;5.10;99.90
5556;DHT22;2801;50.972;7.856;2022-12-20T04:33:50;5.10;99.90
5556;DHT22;2801;50.972;7.856;2022-12-20T04:36:17;5.20;99.90
5556;DHT22;2801;50.972;7.856;2022-12-20T04:38:45;5.10;99.90
5556;DHT22;2801;50.972;7.856;2022-12-20T04:41:12;5.10;99.90
5556;DHT22;2801;50.972;7.856;2022-12-20T04:43:55;5.10;99.90
5556;DHT22;2801;50.972;7.856;2022-12-20T04:46:25;5.10;99.90
5556;DHT22;2801;50.972;7.856;2022-12-20T04:48:52;5.00;99.90
5556;DHT22;2801;50.972;7.856;2022-12-20T04:51:24;5.00;99.90
5556;DHT22;2801;50.972;7.856;2022-12-20T04:53:51;5.10;99.90
5556;DHT22;2801;50.972;7.856;2022-12-20T04:56:19;5.10;99.90
5556;DHT22;2801;50.972;7.856;2022-12-20T04:58:51;5.20;99.90
5556;DHT22;2801;50.972;7.856;2022-12-20T05:01:19;5.10;99.90
5556;DHT22;2801;50.972;7.856;2022-12-20T05:03:47;5.10;99.90
5556;DHT22;2801;50.972;7.856;2022-12-20T05:06:16;5.20;99.90
5556;DHT22;2801;50.972;7.856;2022-12-20T05:08:43;5.20;99.90
5556;DHT22;2801;50.972;7.856;2022-12-20T05:11:10;5.20;99.90
5556;DHT22;2801;50.972;7.856;2022-12-20T05:13:38;5.20;99.90
5556;DHT22;2801;50.972;7.856;2022-12-20T05:16:05;5.20;99.90
5556;DHT22;2801;50.972;7.856;2022-12-20T05:18:32;5.20;99.90
5556;DHT22;2801;50.972;7.856;2022-12-20T05:21:01;5.20;99.90
5556;DHT22;2801;50.972;7.856;2022-12-20T05:23:47;5.20;99.90
5556;DHT22;2801;50.972;7.856;2022-12-20T05:26:36;5.20;99.90
5556;DHT22;2801;50.972;7.856;2022-12-20T05:29:05;5.20;99.90
5556;DHT22;2801;50.972;7.856;2022-12-20T05:31:35;5.20;99.90
5556;DHT22;2801;50.972;7.856;2022-12-20T05:34:03;5.20;99.90
5556;DHT22;2801;50.972;7.856;2022-12-20T05:36:33;5.20;99.90
5556;DHT22;2801;50.972;7.856;2022-12-20T05:39:00;5.20;99.90
5556;DHT22;2801;50.972;7.856;2022-12-20T05:41:30;5.20;99.90
5556;DHT22;2801;50.972;7.856;2022-12-20T05:43:57;5.20;99.90
5556;DHT22;2801;50.972;7.856;2022-12-20T05:46:24;5.20;99.90
5556;DHT22;2801;50.972;7.856;2022-12-20T05:48:51;5.20;99.90
5556;DHT22;2801;50.972;7.856;2022-12-20T05:51:18;5.30;99.90
5556;DHT22;2801;50.972;7.856;2022-12-20T05:53:45;5.30;99.90
5556;DHT22;2801;50.972;7.856;2022-12-20T05:56:12;5.20;99.90
5556;DHT22;2801;50.972;7.856;2022-12-20T05:58:39;5.20;99.90
5556;DHT22;2801;50.972;7.856;2022-12-20T06:01:07;5.20;99.90
5556;DHT22;2801;50.972;7.856;2022-12-20T06:03:37;5.30;99.90
5556;DHT22;2801;50.972;7.856;2022-12-20T06:06:06;5.30;99.90
5556;DHT22;2801;50.972;7.856;2022-12-20T06:08:40;5.20;99.90
5556;DHT22;2801;50.972;7.856;2022-12-20T06:11:07;5.20;99.90
5556;DHT22;2801;50.972;7.856;2022-12-20T06:13:34;5.20;99.90
5556;DHT22;2801;50.972;7.856;2022-12-20T06:16:01;5.30;99.90
5556;DHT22;2801;50.972;7.856;2022-12-20T06:18:28;5.30;99.90
5556;DHT22;2801;50.972;7.856;2022-12-20T06:20:54;5.30;99.90
5556;DHT22;2801;50.972;7.856;2022-12-20T06:23:21;5.30;99.90
5556;DHT22;2801;50.972;7.856;2022-12-20T06:25:48;5.30;99.90
5556;DHT22;2801;50.972;7.856;2022-12-20T06:28:15;5.20;99.90
5556;DHT22;2801;50.972;7.856;2022-12-20T06:30:54;5.20;99.90
5556;DHT22;2801;50.972;7.856;2022-12-20T06:33:23;5.20;99.90
5556;DHT22;2801;50.972;7.856;2022-12-20T06:35:51;5.20;99.90
5556;DHT22;2801;50.972;7.856;2022-12-20T06:38:18;5.20;99.90
5556;DHT22;2801;50.972;7.856;2022-12-20T06:40:45;5.30;99.90
5556;DHT22;2801;50.972;7.856;2022-12-20T06:43:12;5.30;99.90
5556;DHT22;2801;50.972;7.856;2022-12-20T06:45:38;5.30;99.90
5556;DHT22;2801;50.972;7.856;2022-12-20T06:48:08;5.30;99.90
5556;DHT22;2801;50.972;7.856;2022-12-20T06:50:39;5.40;99.90
5556;DHT22;2801;50.972;7.856;2022-12-20T06:53:06;5.40;99.90
5556;DHT22;2801;50.972;7.856;2022-12-20T06:55:33;5.40;99.90
5556;DHT22;2801;50.972;7.856;2022-12-20T06:58:00;5.40;99.90
5556;DHT22;2801;50.972;7.856;2022-12-20T07:00:29;5.40;99.90
5556;DHT22;2801;50.972;7.856;2022-12-20T07:02:57;5.50;99.90
5556;DHT22;2801;50.972;7.856;2022-12-20T07:05:24;5.40;99.90
5556;DHT22;2801;50.972;7.856;2022-12-20T07:07:53;5.40;99.90
5556;DHT22;2801;50.972;7.856;2022-12-20T07:10:21;5.40;99.90
5556;DHT22;2801;50.972;7.856;2022-12-20T07:12:48;5.40;99.90
5556;DHT22;2801;50.972;7.856;2022-12-20T07:15:15;5.40;99.90
5556;DHT22;2801;50.972;7.856;2022-12-20T07:17:43;5.40;99.90
5556;DHT22;2801;50.972;7.856;2022-12-20T07:20:10;5.40;99.90
5556;DHT22;2801;50.972;7.856;2022-12-20T07:22:40;5.30;99.90
5556;DHT22;2801;50.972;7.856;2022-12-20T07:25:07;5.40;99.90
5556;DHT22;2801;50.972;7.856;2022-12-20T07:27:35;5.40;99.90
5556;DHT22;2801;50.972;7.856;2022-12-20T07:30:03;5.40;99.90
5556;DHT22;2801;50.972;7.856;2022-12-20T07:32:30;5.40;99.90
5556;DHT22;2801;50.972;7.856;2022-12-20T07:34:58;5.40;99.90
5556;DHT22;2801;50.972;7.856;2022-12-20T07:37:25;5.40;99.90
5556;DHT22;2801;50.972;7.856;2022-12-20T07:39:54;5.40;99.90
5556;DHT22;2801;50.972;7.856;2022-12-20T07:42:21;5.40;99.90
5556;DHT22;2801;50.972;7.856;2022-12-20T07:44:48;5.40;99.90
5556;DHT22;2801;50.972;7.856;2022-12-20T07:47:14;5.40;99.90
5556;DHT22;2801;50.972;7.856;2022-12-20T07:49:41;5.40;99.90
5556;DHT22;2801;50.972;7.856;2022-12-20T07:52:09;5.30;99.90
5556;DHT22;2801;50.972;7.856;2022-12-20T07:54:45;5.30;99.90
5556;DHT22;2801;50.972;7.856;2022-12-20T07:57:24;5.30;99.90
5556;DHT22;2801;50.972;7.856;2022-12-20T07:59:57;5.30;99.90
5556;DHT22;2801;50.972;7.856;2022-12-20T08:02:42;5.20;99.90
5556;DHT22;2801;50.972;7.856;2022-12-20T08:05:14;5.20;99.90
5556;DHT22;2801;50.972;7.856;2022-12-20T08:07:44;5.20;99.90
5556;DHT22;2801;50.972;7.856;2022-12-20T08:10:13;5.20;99.90
5556;DHT22;2801;50.972;7.856;2022-12-20T08:12:44;5.10;99.90
5556;DHT22;2801;50.972;7.856;2022-12-20T08:15:13;5.20;99.90
5556;DHT22;2801;50.972;7.856;2022-12-20T08:17:40;5.20;99.90
5556;DHT22;2801;50.972;7.856;2022-12-20T08:20:07;5.30;99.90
5556;DHT22;2801;50.972;7.856;2022-12-20T08:22:34;5.30;99.90
5556;DHT22;2801;50.972;7.856;2022-12-20T08:25:01;5.40;99.90
5556;DHT22;2801;50.972;7.856;2022-12-20T08:27:28;5.50;99.90
5556;DHT22;2801;50.972;7.856;2022-12-20T08:29:55;5.50;99.90
5556;DHT22;2801;50.972;7.856;2022-12-20T08:32:22;5.50;99.90
5556;DHT22;2801;50.972;7.856;2022-12-20T08:34:49;5.50;99.90
5556;DHT22;2801;50.972;7.856;2022-12-20T08:37:16;5.50;99.90
5556;DHT22;2801;50.972;7.856;2022-12-20T08:39:43;5.50;99.90
5556;DHT22;2801;50.972;7.856;2022-12-20T08:42:11;5.60;99.90
5556;DHT22;2801;50.972;7.856;2022-12-20T08:44:39;5.50;99.90
5556;DHT22;2801;50.972;7.856;2022-12-20T08:47:06;5.50;99.90
5556;DHT22;2801;50.972;7.856;2022-12-20T08:49:34;5.50;99.90
5556;DHT22;2801;50.972;7.856;2022-12-20T08:52:02;5.50;99.90
5556;DHT22;2801;50.972;7.856;2022-12-20T08:54:30;5.50;99.90
5556;DHT22;2801;50.972;7.856;2022-12-20T08:56:57;5.50;99.90
5556;DHT22;2801;50.972;7.856;2022-12-20T08:59:25;5.50;99.90
5556;DHT22;2801;50.972;7.856;2022-12-20T09:01:55;5.50;99.90
5556;DHT22;2801;50.972;7.856;2022-12-20T09:04:22;5.50;99.90
5556;DHT22;2801;50.972;7.856;2022-12-20T09:06:49;5.50;99.90
5556;DHT22;2801;50.972;7.856;2022-12-20T09:09:16;5.50;99.90
5556;DHT22;2801;50.972;7.856;2022-12-20T09:11:43;5.50;99.90
5556;DHT22;2801;50.972;7.856;2022-12-20T09:14:11;5.40;99.90
5556;DHT22;2801;50.972;7.856;2022-12-20T09:16:40;5.50;99.90
5556;DHT22;2801;50.972;7.856;2022-12-20T09:19:15;5.50;99.90
5556;DHT22;2801;50.972;7.856;2022-12-20T09:21:42;5.40;99.90
5556;DHT22;2801;50.972;7.856;2022-12-20T09:24:10;5.50;99.90
5556;DHT22;2801;50.972;7.856;2022-12-20T09:26:39;5.50;99.90
5556;DHT22;2801;50.972;7.856;2022-12-20T09:29:09;5.50;99.90
5556;DHT22;2801;50.972;7.856;2022-12-20T09:31:36;5.50;99.90
5556;DHT22;2801;50.972;7.856;2022-12-20T09:34:04;5.50;99.90
5556;DHT22;2801;50.972;7.856;2022-12-20T09:36:31;5.50;99.90
5556;DHT22;2801;50.972;7.856;2022-12-20T09:38:59;5.50;99.90
5556;DHT22;2801;50.972;7.856;2022-12-20T09:41:36;5.50;99.90
5556;DHT22;2801;50.972;7.856;2022-12-20T09:47:15;5.60;99.90
5556;DHT22;2801;50.972;7.856;2022-12-20T09:49:49;5.50;99.90
5556;DHT22;2801;50.972;7.856;2022-12-20T09:53:02;5.60;99.90
5556;DHT22;2801;50.972;7.856;2022-12-20T09:55:50;5.60;99.90
5556;DHT22;2801;50.972;7.856;2022-12-20T09:58:41;5.60;99.90
5556;DHT22;2801;50.972;7.856;2022-12-20T10:01:23;5.60;99.90
5556;DHT22;2801;50.972;7.856;2022-12-20T10:03:58;5.60;99.90
5556;DHT22;2801;50.972;7.856;2022-12-20T10:06:45;5.60;99.90
5556;DHT22;2801;50.972;7.856;2022-12-20T10:15:40;5.80;99.90
5556;DHT22;2801;50.972;7.856;2022-12-20T10:21:32;5.90;99.90
5556;DHT22;2801;50.972;7.856;2022-12-20T10:24:19;5.90;99.90
5556;DHT22;2801;50.972;7.856;2022-12-20T10:26:50;5.90;99.90
5556;DHT22;2801;50.972;7.856;2022-12-20T10:29:21;5.90;99.90
5556;DHT22;2801;50.972;7.856;2022-12-20T10:31:58;5.90;99.90
5556;DHT22;2801;50.972;7.856;2022-12-20T10:34:28;6.00;99.90
5556;DHT22;2801;50.972;7.856;2022-12-20T10:37:13;5.90;99.90
5556;DHT22;2801;50.972;7.856;2022-12-20T10:39:49;5.90;99.90
5556;DHT22;2801;50.972;7.856;2022-12-20T10:42:24;5.90;99.90
5556;DHT22;2801;50.972;7.856;2022-12-20T10:44:56;5.90;99.90
5556;DHT22;2801;50.972;7.856;2022-12-20T10:47:42;6.00;99.90
5556;DHT22;2801;50.972;7.856;2022-12-20T10:50:18;6.00;99.90
5556;DHT22;2801;50.972;7.856;2022-12-20T10:55:41;6.00;99.90
5556;DHT22;2801;50.972;7.856;2022-12-20T11:01:11;5.90;99.90
5556;DHT22;2801;50.972;7.856;2022-12-20T11:04:00;5.90;99.90
5556;DHT22;2801;50.972;7.856;2022-12-20T11:06:52;5.90;99.90
5556;DHT22;2801;50.972;7.856;2022-12-20T11:09:31;5.90;99.90
5556;DHT22;2801;50.972;7.856;2022-12-20T11:12:16;5.90;99.90
5556;DHT22;2801;50.972;7.856;2022-12-20T11:14:45;6.00;99.90
5556;DHT22;2801;50.972;7.856;2022-12-20T11:17:40;6.00;99.90
5556;DHT22;2801;50.972;7.856;2022-12-20T11:23:50;6.00;99.90
5556;DHT22;2801;50.972;7.856;2022-12-20T11:34:51;6.10;99.90
5556;DHT22;2801;50.972;7.856;2022-12-20T11:43:59;6.10;99.90
5556;DHT22;2801;50.972;7.856;2022-12-20T11:47:03;6.10;99.90
5556;DHT22;2801;50.972;7.856;2022-12-20T11:50:30;6.10;99.90
5556;DHT22;2801;50.972;7.856;2022-12-20T11:55:57;6.20;99.90
5556;DHT22;2801;50.972;7.856;2022-12-20T12:04:37;6.20;99.90
5556;DHT22;2801;50.972;7.856;2022-12-20T12:07:31;6.20;99.90
5556;DHT22;2801;50.972;7.856;2022-12-20T12:10:21;6.20;99.90
5556;DHT22;2801;50.972;7.856;2022-12-20T12:13:01;6.20;99.90
5556;DHT22;2801;50.972;7.856;2022-12-20T12:18:26;6.20;99.90
5556;DHT22;2801;50.972;7.856;2022-12-20T12:23:48;6.20;99.90
5556;DHT22;2801;50.972;7.856;2022-12-20T12:26:37;6.20;99.90
5556;DHT22;2801;50.972;7.856;2022-12-20T12:29:12;6.20;99.90
5556;DHT22;2801;50.972;7.856;2022-12-20T12:31:58;6.20;99.90
5556;DHT22;2801;50.972;7.856;2022-12-20T12:46:23;6.20;99.90
5556;DHT22;2801;50.972;7.856;2022-12-20T12:49:00;6.20;99.90
5556;DHT22;2801;50.972;7.856;2022-12-20T12:51:33;6.20;99.90
5556;DHT22;2801;50.972;7.856;2022-12-20T12:54:11;6.20;99.90
5556;DHT22;2801;50.972;7.856;2022-12-20T12:56:43;6.20;99.90
5556;DHT22;2801;50.972;7.856;2022-12-20T12:59:43;6.20;99.90
5556;DHT22;2801;50.972;7.856;2022-12-20T13:09:59;6.30;99.90
5556;DHT22;2801;50.972;7.856;2022-12-20T13:17:55;6.30;99.90
5556;DHT22;2801;50.972;7.856;2022-12-20T13:20:34;6.30;99.90
5556;DHT22;2801;50.972;7.856;2022-12-20T13:25:35;6.40;99.90
5556;DHT22;2801;50.972;7.856;2022-12-20T13:33:44;6.50;99.90
5556;DHT22;2801;50.972;7.856;2022-12-20T13:41:47;6.40;99.90
5556;DHT22;2801;50.972;7.856;2022-12-20T13:49:51;6.50;99.90
5556;DHT22;2801;50.972;7.856;2022-12-20T13:52:31;6.50;99.90
5556;DHT22;2801;50.972;7.856;2022-12-20T13:55:16;6.50;99.90
5556;DHT22;2801;50.972;7.856;2022-12-20T15:48:42;6.30;99.90
5556;DHT22;2801;50.972;7.856;2022-12-20T15:51:30;6.20;99.90
5556;DHT22;2801;50.972;7.856;2022-12-20T15:54:03;6.20;99.90
5556;DHT22;2801;50.972;7.856;2022-12-20T15:56:32;6.20;99.90
5556;DHT22;2801;50.972;7.856;2022-12-20T15:58:59;6.10;99.90
5556;DHT22;2801;50.972;7.856;2022-12-20T16:01:43;6.20;99.90
5556;DHT22;2801;50.972;7.856;2022-12-20T16:04:15;6.20;99.90
5556;DHT22;2801;50.972;7.856;2022-12-20T16:06:46;6.30;99.90
5556;DHT22;2801;50.972;7.856;2022-12-20T16:09:15;6.30;99.90
5556;DHT22;2801;50.972;7.856;2022-12-20T16:11:43;6.30;99.90
5556;DHT22;2801;50.972;7.856;2022-12-20T16:14:20;6.30;99.90
5556;DHT22;2801;50.972;7.856;2022-12-20T16:16:47;6.30;99.90
5556;DHT22;2801;50.972;7.856;2022-12-20T16:19:16;6.30;99.90
5556;DHT22;2801;50.972;7.856;2022-12-20T16:21:46;6.30;99.90
5556;DHT22;2801;50.972;7.856;2022-12-20T16:24:18;6.30;99.90
5556;DHT22;2801;50.972;7.856;2022-12-20T16:26:49;6.30;99.90
5556;DHT22;2801;50.972;7.856;2022-12-20T16:29:17;6.30;99.90
5556;DHT22;2801;50.972;7.856;2022-12-20T16:31:44;6.30;99.90
5556;DHT22;2801;50.972;7.856;2022-12-20T16:34:17;6.40;99.90
5556;DHT22;2801;50.972;7.856;2022-12-20T16:36:45;6.40;99.90
5556;DHT22;2801;50.972;7.856;2022-12-20T16:39:12;6.40;99.90
5556;DHT22;2801;50.972;7.856;2022-12-20T16:41:40;6.40;99.90
5556;DHT22;2801;50.972;7.856;2022-12-20T16:44:13;6.40;99.90
5556;DHT22;2801;50.972;7.856;2022-12-20T16:46:41;6.40;99.90
5556;DHT22;2801;50.972;7.856;2022-12-20T16:49:11;6.30;99.90
5556;DHT22;2801;50.972;7.856;2022-12-20T16:51:46;6.40;99.90
5556;DHT22;2801;50.972;7.856;2022-12-20T16:54:19;6.30;99.90
5556;DHT22;2801;50.972;7.856;2022-12-20T16:56:50;6.30;99.90
5556;DHT22;2801;50.972;7.856;2022-12-20T16:59:24;6.30;99.90
5556;DHT22;2801;50.972;7.856;2022-12-20T17:01:53;6.20;99.90
5556;DHT22;2801;50.972;7.856;2022-12-20T17:04:23;6.20;99.90
5556;DHT22;2801;50.972;7.856;2022-12-20T17:06:50;6.10;99.90
5556;DHT22;2801;50.972;7.856;2022-12-20T17:09:18;6.10;99.90
5556;DHT22;2801;50.972;7.856;2022-12-20T17:12:08;6.20;99.90
5556;DHT22;2801;50.972;7.856;2022-12-20T17:14:40;6.20;99.90
5556;DHT22;2801;50.972;7.856;2022-12-20T17:17:07;6.20;99.90
5556;DHT22;2801;50.972;7.856;2022-12-20T17:19:34;6.20;99.90
5556;DHT22;2801;50.972;7.856;2022-12-20T17:22:01;6.20;99.90
5556;DHT22;2801;50.972;7.856;2022-12-20T17:24:46;6.20;99.90
5556;DHT22;2801;50.972;7.856;2022-12-20T17:27:13;6.20;99.90
5556;DHT22;2801;50.972;7.856;2022-12-20T17:29:40;6.20;99.90
5556;DHT22;2801;50.972;7.856;2022-12-20T17:32:25;6.20;99.90
5556;DHT22;2801;50.972;7.856;2022-12-20T17:34:52;6.20;99.90
5556;DHT22;2801;50.972;7.856;2022-12-20T17:37:19;6.20;99.90
5556;DHT22;2801;50.972;7.856;2022-12-20T17:39:47;6.20;99.90
5556;DHT22;2801;50.972;7.856;2022-12-20T17:42:14;6.20;99.90
5556;DHT22;2801;50.972;7.856;2022-12-20T17:44:42;6.30;99.90
5556;DHT22;2801;50.972;7.856;2022-12-20T17:47:09;6.30;99.90
5556;DHT22;2801;50.972;7.856;2022-12-20T17:49:37;6.30;99.90
5556;DHT22;2801;50.972;7.856;2022-12-20T17:52:04;6.30;99.90
5556;DHT22;2801;50.972;7.856;2022-12-20T17:54:31;6.40;99.90
5556;DHT22;2801;50.972;7.856;2022-12-20T17:57:11;6.40;99.90
5556;DHT22;2801;50.972;7.856;2022-12-20T17:59:39;6.40;99.90
5556;DHT22;2801;50.972;7.856;2022-12-20T18:02:33;6.30;99.90
5556;DHT22;2801;50.972;7.856;2022-12-20T18:05:01;6.30;99.90
5556;DHT22;2801;50.972;7.856;2022-12-20T18:07:28;6.20;99.90
5556;DHT22;2801;50.972;7.856;2022-12-20T18:09:55;6.10;99.90
5556;DHT22;2801;50.972;7.856;2022-12-20T18:12:22;6.20;99.90
5556;DHT22;2801;50.972;7.856;2022-12-20T18:14:49;6.10;99.90
5556;DHT22;2801;50.972;7.856;2022-12-20T18:17:16;6.10;99.90
5556;DHT22;2801;50.972;7.856;2022-12-20T18:19:43;6.10;99.90
5556;DHT22;2801;50.972;7.856;2022-12-20T18:22:11;6.10;99.90
5556;DHT22;2801;50.972;7.856;2022-12-20T18:24:39;6.10;99.90
5556;DHT22;2801;50.972;7.856;2022-12-20T18:27:05;6.10;99.90
5556;DHT22;2801;50.972;7.856;2022-12-20T18:29:32;6.10;99.90
5556;DHT22;2801;50.972;7.856;2022-12-20T18:31:59;6.10;99.90
5556;DHT22;2801;50.972;7.856;2022-12-20T18:34:26;6.10;99.90
5556;DHT22;2801;50.972;7.856;2022-12-20T18:36:53;6.10;99.90
5556;DHT22;2801;50.972;7.856;2022-12-20T18:39:20;6.10;99.90
5556;DHT22;2801;50.972;7.856;2022-12-20T18:41:47;6.10;99.90
5556;DHT22;2801;50.972;7.856;2022-12-20T18:44:14;6.20;99.90
5556;DHT22;2801;50.972;7.856;2022-12-20T18:46:41;6.20;99.90
5556;DHT22;2801;50.972;7.856;2022-12-20T18:49:08;6.20;99.90
5556;DHT22;2801;50.972;7.856;2022-12-20T18:51:35;6.20;99.90
5556;DHT22;2801;50.972;7.856;2022-12-20T18:54:04;6.20;99.90
5556;DHT22;2801;50.972;7.856;2022-12-20T18:56:34;6.30;99.90
5556;DHT22;2801;50.972;7.856;2022-12-20T18:59:03;6.30;99.90
5556;DHT22;2801;50.972;7.856;2022-12-20T19:01:39;6.40;99.90
5556;DHT22;2801;50.972;7.856;2022-12-20T19:04:08;6.50;99.90
5556;DHT22;2801;50.972;7.856;2022-12-20T19:06:36;6.50;99.90
5556;DHT22;2801;50.972;7.856;2022-12-20T19:09:06;6.60;99.90
5556;DHT22;2801;50.972;7.856;2022-12-20T19:11:35;6.70;99.90
5556;DHT22;2801;50.972;7.856;2022-12-20T19:14:03;6.70;99.90
5556;DHT22;2801;50.972;7.856;2022-12-20T19:16:30;6.80;99.90
5556;DHT22;2801;50.972;7.856;2022-12-20T19:19:00;6.70;99.90
5556;DHT22;2801;50.972;7.856;2022-12-20T19:21:29;6.70;99.90
5556;DHT22;2801;50.972;7.856;2022-12-20T19:24:00;6.80;99.90
5556;DHT22;2801;50.972;7.856;2022-12-20T19:26:31;6.80;99.90
5556;DHT22;2801;50.972;7.856;2022-12-20T19:28:59;6.80;99.90
5556;DHT22;2801;50.972;7.856;2022-12-20T19:31:28;6.70;99.90
5556;DHT22;2801;50.972;7.856;2022-12-20T19:34:02;6.70;99.90
5556;DHT22;2801;50.972;7.856;2022-12-20T19:36:43;6.70;99.90
5556;DHT22;2801;50.972;7.856;2022-12-20T19:39:16;6.70;99.90
5556;DHT22;2801;50.972;7.856;2022-12-20T19:41:46;6.70;99.90
5556;DHT22;2801;50.972;7.856;2022-12-20T19:44:34;6.70;99.90
5556;DHT22;2801;50.972;7.856;2022-12-20T19:47:01;6.70;99.90
5556;DHT22;2801;50.972;7.856;2022-12-20T19:49:31;6.70;99.90
5556;DHT22;2801;50.972;7.856;2022-12-20T19:51:59;6.70;99.90
5556;DHT22;2801;50.972;7.856;2022-12-20T19:54:26;6.70;99.90
5556;DHT22;2801;50.972;7.856;2022-12-20T19:56:54;6.70;99.90
5556;DHT22;2801;50.972;7.856;2022-12-20T19:59:21;6.70;99.90
5556;DHT22;2801;50.972;7.856;2022-12-20T20:01:48;6.70;99.90
5556;DHT22;2801;50.972;7.856;2022-12-20T20:04:15;6.70;99.90
5556;DHT22;2801;50.972;7.856;2022-12-20T20:06:42;6.80;99.90
5556;DHT22;2801;50.972;7.856;2022-12-20T20:09:09;6.80;99.90
5556;DHT22;2801;50.972;7.856;2022-12-20T20:11:36;6.80;99.90
5556;DHT22;2801;50.972;7.856;2022-12-20T20:14:03;6.90;99.90
5556;DHT22;2801;50.972;7.856;2022-12-20T20:16:30;7.00;99.90
5556;DHT22;2801;50.972;7.856;2022-12-20T20:18:58;7.00;99.90